Portada
METAR-TAF:

METAR-TAF

Aeroports :

Angeles, Filipines

latitud: 15-11N, longitud: 120-33E, altitud: 148 m

Observació

L'informe es va fer fa 1 hora i 42 minuts, a les 16:00 UTC
Vent 4 kt del Nord-Est
Temperatura 24°C
Humitat 74%
Pressió 1016 hPa
Visibilitat 10 km o més
Escasses núvols a una alçada de 2000 ft
Cel ennuvolat a una alçada de 30000 ft

METAR: RPLC 271600Z 04004KT 9999 FEW020 BKN300 24/19 Q1016 NOSIG RMK A3000

Hora: 01:42 (17:42 UTC)

Pronòstic

L'informe es va fer fa 42 minuts, a les 17:00 UTC
Pronòstic vàlid del 27 a les 18 UTC al 28 a les 24 UTC
Vent 6 kt del Oest
Visibilitat 10 km o més
Escasses núvols a una alçada de 2000 ft
Cel ennuvolat a una alçada de 30000 ft
Temporalment
l' 27 a les 18 UTC al 27 a les 24 UTC
Vent 5 kt del Nord/Nord-Oest
Escasses núvols a una alçada de 2000 ft
Cel ennuvolat a una alçada de 10000 ft

TAF: RPLC 271700Z 2718/2824 27006KT 9999 FEW020 BKN300 TX31/2806Z TN21/2722Z TEMPO 2718/2724 34005KT FEW020 BKN100

Observacions i pronòstics meteorològics de més de 4000 aeroports (METAR i TAF).

Les estacions disponibles són els punts grocs i vermells al mapa.

Posi el ratolí al punt desitjat per veure el nom de l'estació.

Feu clic per veure les observacions i els pronòstics meteorològics.

Per canviar el mapa: feu clic els botons verds amb una creu de color negre per apropar; al botó verd amb un guió per allunyar la imatge; o en les fletxes verdes per a mapes adjacents.


METAR-TAF: